createdAt,value
2023-05-02T00:02:04.084Z,98880.91
2023-05-02T00:04:33.139Z,98880.66
2023-05-02T00:06:59.868Z,98882.03
2023-05-02T00:09:26.551Z,98881.84
2023-05-02T00:11:53.107Z,98881.50
2023-05-02T00:14:21.050Z,98885.31
2023-05-02T00:16:48.079Z,98879.50
2023-05-02T00:19:14.792Z,98878.59
2023-05-02T00:21:49.966Z,98889.13
2023-05-02T00:24:20.063Z,98889.56
2023-05-02T00:26:46.703Z,98888.63
2023-05-02T00:29:13.264Z,98884.47
2023-05-02T00:31:41.239Z,98882.25
2023-05-02T00:34:07.946Z,98889.44
2023-05-02T00:36:34.530Z,98890.19
2023-05-02T00:39:01.278Z,98903.22
2023-05-02T00:41:27.848Z,98898.56
2023-05-02T00:43:54.431Z,98903.78
2023-05-02T00:46:21.114Z,98902.34
2023-05-02T00:48:48.000Z,98901.72
2023-05-02T00:51:14.582Z,98898.56
2023-05-02T00:53:41.726Z,98901.84
2023-05-02T00:56:09.469Z,98898.13
2023-05-02T00:58:38.735Z,98901.28
2023-05-02T01:01:29.415Z,98899.88
2023-05-02T01:04:50.746Z,98914.44
2023-05-02T01:08:03.460Z,98901.38
2023-05-02T01:10:50.148Z,98898.09
2023-05-02T01:13:25.697Z,98905.28
2023-05-02T01:15:55.853Z,98908.00
2023-05-02T01:18:26.601Z,98910.63
2023-05-02T01:21:07.733Z,98915.59
2023-05-02T01:24:01.361Z,98910.31
2023-05-02T01:27:17.245Z,98923.19
2023-05-02T01:29:45.982Z,98928.50
2023-05-02T01:32:15.013Z,98930.31
2023-05-02T01:34:44.590Z,98927.63
2023-05-02T01:37:13.646Z,98937.63
2023-05-02T01:39:44.242Z,98942.69
2023-05-02T01:42:13.161Z,98938.22
2023-05-02T01:44:42.369Z,98934.28
2023-05-02T01:47:10.082Z,98931.25
2023-05-02T01:49:37.839Z,98944.13
2023-05-02T01:52:11.364Z,98944.03
2023-05-02T01:54:40.104Z,98941.03
2023-05-02T01:57:09.475Z,98942.38
2023-05-02T01:59:38.979Z,98958.19
2023-05-02T02:02:08.424Z,98947.06
2023-05-02T02:04:37.894Z,98945.63
2023-05-02T02:07:09.490Z,98952.63
2023-05-02T02:09:36.387Z,98956.88
2023-05-02T02:12:17.585Z,98955.38
2023-05-02T02:14:51.215Z,98959.25
2023-05-02T02:17:37.317Z,98959.09
2023-05-02T02:20:09.617Z,98964.75
2023-05-02T02:22:39.491Z,98964.09
2023-05-02T02:25:11.126Z,98961.16
2023-05-02T02:27:39.187Z,98961.25
2023-05-02T02:30:07.232Z,98969.56
2023-05-02T02:32:33.900Z,98970.63
2023-05-02T02:35:01.452Z,98971.78
2023-05-02T02:37:39.764Z,98972.44
2023-05-02T02:40:49.529Z,98971.59
2023-05-02T02:43:28.469Z,98968.97
2023-05-02T02:46:26.185Z,98969.50
2023-05-02T02:49:18.692Z,98972.16
2023-05-02T02:51:54.386Z,98973.84
2023-05-02T02:54:58.675Z,98974.66
2023-05-02T02:57:59.035Z,98981.31
2023-05-02T03:00:28.295Z,98980.91
2023-05-02T03:02:56.650Z,98984.50
2023-05-02T03:05:29.074Z,98997.69
2023-05-02T03:07:55.890Z,99001.94
2023-05-02T03:10:23.191Z,99004.31
2023-05-02T03:12:50.323Z,99005.94
2023-05-02T03:15:59.029Z,99007.59
2023-05-02T03:18:25.821Z,99012.31
2023-05-02T03:20:52.631Z,99017.78
2023-05-02T03:23:19.250Z,99020.59
2023-05-02T03:25:45.833Z,99019.38
2023-05-02T03:28:12.383Z,99025.69
2023-05-02T03:30:40.662Z,99026.13
2023-05-02T03:33:08.714Z,99032.63
2023-05-02T03:35:35.399Z,99032.09
2023-05-02T03:38:02.007Z,99040.63
2023-05-02T03:40:28.643Z,99045.59
2023-05-02T03:42:55.270Z,99041.84
2023-05-02T03:45:21.841Z,99047.72
2023-05-02T03:47:48.510Z,99041.22
2023-05-02T03:50:15.276Z,99042.88
2023-05-02T03:52:41.932Z,99041.25
2023-05-02T03:55:08.744Z,99039.84
2023-05-02T03:57:35.355Z,99048.97
2023-05-02T04:00:02.223Z,99055.72
2023-05-02T04:02:30.340Z,99057.44
2023-05-02T04:04:57.086Z,99066.19
2023-05-02T04:07:25.678Z,99072.78
2023-05-02T04:09:52.235Z,99072.38
2023-05-02T04:12:18.846Z,99071.84
2023-05-02T04:14:45.516Z,99068.19
2023-05-02T04:17:12.350Z,99074.69
2023-05-02T04:19:38.959Z,99070.13
2023-05-02T04:22:05.634Z,99071.00
2023-05-02T04:24:32.210Z,99083.00
2023-05-02T04:26:58.849Z,99077.69
2023-05-02T04:29:25.467Z,99083.63
2023-05-02T04:31:52.096Z,99092.03
2023-05-02T04:34:18.665Z,99086.34
2023-05-02T04:36:46.855Z,99090.31
2023-05-02T04:39:13.535Z,99081.47
2023-05-02T04:41:40.596Z,99084.56
2023-05-02T04:44:07.205Z,99097.06
2023-05-02T04:46:33.877Z,99100.19
2023-05-02T04:49:00.700Z,99104.38
2023-05-02T04:51:29.006Z,99102.63
2023-05-02T04:53:55.588Z,99110.69
2023-05-02T04:56:22.158Z,99119.75
2023-05-02T04:58:53.787Z,99122.34
2023-05-02T05:01:20.522Z,99119.38
2023-05-02T05:03:47.247Z,99131.00
2023-05-02T05:06:13.958Z,99117.88
2023-05-02T05:08:40.671Z,99139.53
2023-05-02T05:11:07.304Z,99133.31
2023-05-02T05:13:34.125Z,99137.44
2023-05-02T05:16:00.703Z,99146.78
2023-05-02T05:18:27.788Z,99146.59
2023-05-02T05:20:54.670Z,99147.78
2023-05-02T05:23:21.381Z,99156.81
2023-05-02T05:25:48.125Z,99153.69
2023-05-02T05:28:14.755Z,99159.78
2023-05-02T05:30:41.510Z,99160.25
2023-05-02T05:33:08.106Z,99167.19
2023-05-02T05:35:34.930Z,99164.09
2023-05-02T05:38:01.582Z,99177.00
2023-05-02T05:40:28.167Z,99174.41
2023-05-02T05:42:54.774Z,99178.09
2023-05-02T05:45:21.437Z,99171.28
2023-05-02T05:47:48.039Z,99175.25
2023-05-02T05:50:14.743Z,99176.31
2023-05-02T05:52:41.343Z,99169.63
2023-05-02T05:55:08.591Z,99175.63
2023-05-02T05:57:35.271Z,99181.97
2023-05-02T06:00:02.301Z,99182.19
2023-05-02T06:02:29.402Z,99186.44
2023-05-02T06:04:56.054Z,99192.28
2023-05-02T06:07:23.440Z,99197.34
2023-05-02T06:09:50.151Z,99203.63
2023-05-02T06:12:16.903Z,99216.09
2023-05-02T06:14:43.631Z,99205.59
2023-05-02T06:17:10.253Z,99214.69
2023-05-02T06:19:36.832Z,99216.41
2023-05-02T06:22:03.434Z,99208.72
2023-05-02T06:24:30.009Z,99208.22
2023-05-02T06:26:56.587Z,99223.97
2023-05-02T06:29:23.244Z,99229.63
2023-05-02T06:31:51.214Z,99222.88
2023-05-02T06:34:17.939Z,99228.72
2023-05-02T06:36:44.550Z,99238.09
2023-05-02T06:39:11.541Z,99245.28
2023-05-02T06:41:49.221Z,99239.97
2023-05-02T06:44:16.229Z,99249.03
2023-05-02T06:46:43.311Z,99258.09
2023-05-02T06:49:10.230Z,99270.19
2023-05-02T06:51:36.788Z,99260.13
2023-05-02T06:54:03.597Z,99280.25
2023-05-02T06:56:31.067Z,99279.72
2023-05-02T06:58:57.669Z,99287.41
2023-05-02T07:01:24.415Z,99284.94
2023-05-02T07:03:51.943Z,99287.72
2023-05-02T07:06:18.926Z,99286.47
2023-05-02T07:08:45.816Z,99289.47
2023-05-02T07:11:12.378Z,99282.50
2023-05-02T07:13:38.980Z,99298.38
2023-05-02T07:16:07.330Z,99299.09
2023-05-02T07:18:33.927Z,99298.81
2023-05-02T07:21:01.339Z,99300.09
2023-05-02T07:23:28.260Z,99312.63
2023-05-02T07:25:54.920Z,99303.28
2023-05-02T07:28:21.625Z,99316.88
2023-05-02T07:30:48.223Z,99329.16
2023-05-02T07:33:15.637Z,99327.16
2023-05-02T07:35:42.915Z,99337.25
2023-05-02T07:38:09.582Z,99337.44
2023-05-02T07:40:36.264Z,99337.38
2023-05-02T07:43:04.529Z,99340.41
2023-05-02T07:45:31.130Z,99338.47
2023-05-02T07:47:57.824Z,99333.28
2023-05-02T07:50:24.727Z,99339.19
2023-05-02T07:52:51.462Z,99346.53
2023-05-02T07:55:18.226Z,99340.75
2023-05-02T07:57:44.876Z,99341.75
2023-05-02T08:00:12.211Z,99344.28
2023-05-02T08:02:38.958Z,99349.53
2023-05-02T08:05:06.692Z,99342.91
2023-05-02T08:07:35.221Z,99352.72
2023-05-02T08:10:02.242Z,99353.41
2023-05-02T08:12:29.210Z,99363.91
2023-05-02T08:14:55.990Z,99367.75
2023-05-02T08:17:23.037Z,99362.44
2023-05-02T08:19:49.644Z,99372.78
2023-05-02T08:22:16.250Z,99373.53
2023-05-02T08:24:42.817Z,99373.16
2023-05-02T08:27:09.404Z,99362.25
2023-05-02T08:29:36.006Z,99367.72
2023-05-02T08:32:02.802Z,99363.28
2023-05-02T08:34:29.503Z,99373.63
2023-05-02T08:36:58.663Z,99369.84
2023-05-02T08:39:25.332Z,99383.03
2023-05-02T08:41:52.015Z,99375.63
2023-05-02T08:44:18.643Z,99378.13
2023-05-02T08:46:46.016Z,99379.59
2023-05-02T08:49:15.754Z,99383.34
2023-05-02T08:51:45.178Z,99387.63
2023-05-02T08:54:16.891Z,99398.88
2023-05-02T08:56:45.336Z,99391.41
2023-05-02T08:59:11.894Z,99384.03
2023-05-02T09:01:41.609Z,99400.91
2023-05-02T09:04:08.509Z,99399.88
2023-05-02T09:06:36.528Z,99399.16
2023-05-02T09:09:03.415Z,99415.78
2023-05-02T09:11:30.130Z,99401.81
2023-05-02T09:13:58.857Z,99415.50
2023-05-02T09:16:27.010Z,99413.38
2023-05-02T09:18:56.284Z,99412.78
2023-05-02T09:21:45.282Z,99415.75
2023-05-02T09:24:22.631Z,99415.16
2023-05-02T09:27:05.634Z,99423.84
2023-05-02T09:29:38.527Z,99427.06
2023-05-02T09:32:06.487Z,99427.47
2023-05-02T09:34:34.338Z,99419.84
2023-05-02T09:37:01.410Z,99416.34
2023-05-02T09:39:29.153Z,99415.63
2023-05-02T09:41:57.575Z,99421.41
2023-05-02T09:44:27.304Z,99410.53
2023-05-02T09:46:57.200Z,99419.09
2023-05-02T09:49:39.897Z,99419.81
2023-05-02T09:52:18.345Z,99426.06
2023-05-02T09:54:46.612Z,99420.34
2023-05-02T09:57:13.821Z,99427.22
2023-05-02T09:59:41.073Z,99424.00
2023-05-02T10:02:10.954Z,99412.56
2023-05-02T10:04:39.889Z,99421.59
2023-05-02T10:07:10.216Z,99425.31
2023-05-02T10:09:43.664Z,99422.72
2023-05-02T10:12:14.901Z,99415.44
2023-05-02T10:14:53.846Z,99412.13
2023-05-02T10:17:31.486Z,99409.78
2023-05-02T10:20:05.226Z,99410.06
2023-05-02T10:22:34.521Z,99418.44
2023-05-02T10:25:03.748Z,99413.56
2023-05-02T10:27:31.767Z,99401.44
2023-05-02T10:30:00.208Z,99409.31
2023-05-02T10:32:30.371Z,99393.72
2023-05-02T10:34:57.818Z,99406.75
2023-05-02T10:37:27.547Z,99391.44
2023-05-02T10:39:54.522Z,99381.34
2023-05-02T10:42:21.650Z,99380.84
2023-05-02T10:44:50.335Z,99391.97
2023-05-02T10:47:27.290Z,99394.78
2023-05-02T10:50:02.945Z,99398.50
2023-05-02T10:52:33.927Z,99405.50
2023-05-02T10:55:21.128Z,99403.16
2023-05-02T10:58:06.432Z,99406.69
2023-05-02T11:00:34.427Z,99405.81
2023-05-02T11:03:02.423Z,99411.25
2023-05-02T11:05:29.554Z,99405.25
2023-05-02T11:08:14.899Z,99399.97
2023-05-02T11:10:41.794Z,99399.19
2023-05-02T11:13:08.558Z,99403.34
2023-05-02T11:15:41.207Z,99399.41
2023-05-02T11:18:13.291Z,99393.19
2023-05-02T11:20:44.983Z,99394.78
2023-05-02T11:23:15.150Z,99398.47
2023-05-02T11:25:47.318Z,99399.09
2023-05-02T11:28:40.486Z,99393.34
2023-05-02T11:31:10.013Z,99391.81
2023-05-02T11:33:36.767Z,99398.78
2023-05-02T11:36:03.800Z,99393.41
2023-05-02T11:38:38.679Z,99399.56
2023-05-02T11:41:05.664Z,99395.09
2023-05-02T11:43:32.899Z,99392.56
2023-05-02T11:46:02.482Z,99392.66
2023-05-02T11:48:31.014Z,99399.31
2023-05-02T11:51:03.527Z,99403.03
2023-05-02T11:53:31.434Z,99408.06
2023-05-02T11:56:00.266Z,99412.03
2023-05-02T11:58:32.022Z,99415.75
2023-05-02T12:01:12.902Z,99414.63
2023-05-02T12:03:40.997Z,99419.59
2023-05-02T12:06:16.439Z,99410.44
2023-05-02T12:08:44.628Z,99411.47
2023-05-02T12:11:16.315Z,99416.25
2023-05-02T12:13:48.337Z,99411.06
2023-05-02T12:16:16.794Z,99422.00
2023-05-02T12:18:43.970Z,99428.00
2023-05-02T12:21:11.010Z,99425.56
2023-05-02T12:23:39.642Z,99425.97
2023-05-02T12:26:25.514Z,99431.50
2023-05-02T12:28:54.705Z,99434.56
2023-05-02T12:31:22.575Z,99434.47
2023-05-02T12:33:51.653Z,99435.25
2023-05-02T12:36:21.513Z,99429.91
2023-05-02T12:38:54.542Z,99440.47
2023-05-02T12:41:31.809Z,99440.03
2023-05-02T12:44:00.546Z,99446.44
2023-05-02T12:46:28.283Z,99453.78
2023-05-02T12:49:09.507Z,99451.22
2023-05-02T12:51:37.712Z,99456.97
2023-05-02T12:54:05.002Z,99453.97
2023-05-02T12:56:39.890Z,99467.06
2023-05-02T12:59:07.751Z,99466.06
2023-05-02T13:01:34.640Z,99466.38
2023-05-02T13:04:01.468Z,99466.19
2023-05-02T13:06:28.260Z,99470.75
2023-05-02T13:08:54.882Z,99463.63
2023-05-02T13:11:21.806Z,99469.03
2023-05-02T13:13:48.410Z,99463.13
2023-05-02T13:16:15.041Z,99467.16
2023-05-02T13:18:41.742Z,99470.38
2023-05-02T13:21:08.709Z,99468.91
2023-05-02T13:23:35.306Z,99470.06
2023-05-02T13:26:01.911Z,99481.97
2023-05-02T13:28:33.023Z,99487.19
2023-05-02T13:30:59.727Z,99477.69
2023-05-02T13:33:26.320Z,99480.56
2023-05-02T13:35:52.926Z,99480.16
2023-05-02T13:38:20.544Z,99489.09
2023-05-02T13:40:47.333Z,99488.31
2023-05-02T13:43:14.455Z,99488.41
2023-05-02T13:45:41.204Z,99479.84
2023-05-02T13:48:07.820Z,99477.69
2023-05-02T13:50:37.203Z,99480.81
2023-05-02T13:53:03.776Z,99491.84
2023-05-02T13:55:30.335Z,99492.75
2023-05-02T13:57:56.928Z,99498.25
2023-05-02T14:00:23.538Z,99500.19
2023-05-02T14:02:50.262Z,99494.88
2023-05-02T14:05:16.936Z,99491.81
2023-05-02T14:07:43.660Z,99503.22
2023-05-02T14:10:10.520Z,99490.28
2023-05-02T14:12:37.103Z,99486.50
2023-05-02T14:15:04.305Z,99481.03
2023-05-02T14:17:31.998Z,99489.66
2023-05-02T14:19:58.670Z,99499.72
2023-05-02T14:22:25.510Z,99499.03
2023-05-02T14:24:52.096Z,99498.28
2023-05-02T14:27:18.769Z,99490.22
2023-05-02T14:29:46.330Z,99501.06
2023-05-02T14:32:13.744Z,99512.13
2023-05-02T14:34:41.569Z,99508.50
2023-05-02T14:37:09.003Z,99503.78
2023-05-02T14:39:36.843Z,99509.31
2023-05-02T14:42:04.228Z,99506.78
2023-05-02T14:44:31.087Z,99516.09
2023-05-02T14:46:57.829Z,99510.50
2023-05-02T14:49:25.274Z,99518.78
2023-05-02T14:51:52.588Z,99530.28
2023-05-02T14:54:20.123Z,99525.03
2023-05-02T14:56:48.015Z,99525.84
2023-05-02T14:59:14.634Z,99522.72
2023-05-02T15:01:41.251Z,99528.91
2023-05-02T15:04:08.605Z,99544.47
2023-05-02T15:06:36.163Z,99535.47
2023-05-02T15:09:04.646Z,99538.03
2023-05-02T15:11:31.482Z,99528.72
2023-05-02T15:13:59.407Z,99537.84
2023-05-02T15:16:29.375Z,99527.69
2023-05-02T15:18:56.104Z,99535.38
2023-05-02T15:21:22.885Z,99538.38
2023-05-02T15:23:49.528Z,99541.38
2023-05-02T15:26:16.184Z,99545.63
2023-05-02T15:28:42.934Z,99554.97
2023-05-02T15:31:09.641Z,99561.22
2023-05-02T15:33:37.739Z,99558.41
2023-05-02T15:36:04.670Z,99567.19
2023-05-02T15:38:31.282Z,99557.91
2023-05-02T15:41:00.093Z,99559.16
2023-05-02T15:43:27.404Z,99563.63
2023-05-02T15:45:57.170Z,99560.94
2023-05-02T15:48:27.515Z,99568.75
2023-05-02T15:50:54.255Z,99563.97
2023-05-02T15:53:23.835Z,99562.94
2023-05-02T15:55:52.035Z,99570.53
2023-05-02T15:58:19.283Z,99584.09
2023-05-02T16:00:47.409Z,99577.13
2023-05-02T16:03:15.383Z,99586.03
2023-05-02T16:05:42.202Z,99582.66
2023-05-02T16:08:08.864Z,99579.75
2023-05-02T16:10:36.428Z,99571.47
2023-05-02T16:13:03.237Z,99578.56
2023-05-02T16:15:30.282Z,99579.19
2023-05-02T16:17:57.162Z,99584.34
2023-05-02T16:20:23.912Z,99573.91
2023-05-02T16:22:51.225Z,99577.88
2023-05-02T16:25:18.601Z,99580.88
2023-05-02T16:27:45.378Z,99574.34
2023-05-02T16:30:12.708Z,99580.56
2023-05-02T16:32:39.466Z,99566.72
2023-05-02T16:35:08.184Z,99581.81
2023-05-02T16:37:35.655Z,99582.59
2023-05-02T16:40:05.382Z,99577.91
2023-05-02T16:42:32.740Z,99585.09
2023-05-02T16:44:59.417Z,99582.66
2023-05-02T16:47:28.173Z,99587.88
2023-05-02T16:49:56.126Z,99591.50
2023-05-02T16:52:23.195Z,99594.94
2023-05-02T16:54:50.295Z,99598.72
2023-05-02T16:57:21.124Z,99596.53
2023-05-02T16:59:52.259Z,99602.44
2023-05-02T17:02:20.809Z,99596.69
2023-05-02T17:04:49.184Z,99602.00
2023-05-02T17:07:16.729Z,99598.25
2023-05-02T17:09:44.479Z,99604.53
2023-05-02T17:12:12.331Z,99598.25
2023-05-02T17:14:42.155Z,99606.34
2023-05-02T17:17:09.842Z,99606.09
2023-05-02T17:19:37.362Z,99602.47
2023-05-02T17:22:05.289Z,99608.34
2023-05-02T17:24:33.082Z,99610.75
2023-05-02T17:26:59.990Z,99616.31
2023-05-02T17:29:26.648Z,99617.50
2023-05-02T17:31:53.245Z,99616.63
2023-05-02T17:34:25.480Z,99618.34
2023-05-02T17:36:52.106Z,99618.84
2023-05-02T17:39:18.749Z,99617.31
2023-05-02T17:41:45.327Z,99622.84
2023-05-02T17:44:11.907Z,99626.91
2023-05-02T17:46:38.538Z,99621.06
2023-05-02T17:49:05.177Z,99628.75
2023-05-02T17:51:33.671Z,99618.34
2023-05-02T17:54:00.808Z,99632.47
2023-05-02T17:56:28.352Z,99633.50
2023-05-02T17:58:55.307Z,99638.06
2023-05-02T18:01:22.064Z,99640.63
2023-05-02T18:03:49.799Z,99632.69
2023-05-02T18:06:18.003Z,99638.50
2023-05-02T18:08:45.258Z,99650.56
2023-05-02T18:11:17.660Z,99649.44
2023-05-02T18:13:44.603Z,99648.44
2023-05-02T18:16:12.134Z,99657.84
2023-05-02T18:18:38.880Z,99660.38
2023-05-02T18:21:06.031Z,99664.88
2023-05-02T18:23:33.558Z,99670.75
2023-05-02T18:26:00.475Z,99672.41
2023-05-02T18:28:27.202Z,99676.53
2023-05-02T18:30:53.789Z,99679.69
2023-05-02T18:33:20.583Z,99683.44
2023-05-02T18:35:50.534Z,99682.94
2023-05-02T18:38:17.382Z,99688.75
2023-05-02T18:40:44.165Z,99691.72
2023-05-02T18:43:10.895Z,99694.22
2023-05-02T18:45:37.468Z,99697.69
2023-05-02T18:48:04.268Z,99697.50
2023-05-02T18:50:31.144Z,99705.22
2023-05-02T18:52:57.732Z,99705.34
2023-05-02T18:55:25.187Z,99704.97
2023-05-02T18:57:52.160Z,99708.84
2023-05-02T19:00:20.074Z,99716.03
2023-05-02T19:02:47.431Z,99724.22
2023-05-02T19:05:14.854Z,99727.19
2023-05-02T19:07:41.463Z,99731.25
2023-05-02T19:10:08.650Z,99735.56
2023-05-02T19:12:35.319Z,99736.31
2023-05-02T19:15:03.036Z,99743.38
2023-05-02T19:17:33.218Z,99743.00
2023-05-02T19:20:02.048Z,99754.53
2023-05-02T19:22:30.303Z,99755.72
2023-05-02T19:24:57.438Z,99752.28
2023-05-02T19:27:24.289Z,99750.59
2023-05-02T19:29:57.980Z,99759.50
2023-05-02T19:32:25.077Z,99755.31
2023-05-02T19:34:54.341Z,99767.44
2023-05-02T19:37:20.942Z,99761.00
2023-05-02T19:39:47.525Z,99759.88
2023-05-02T19:42:14.357Z,99764.59
2023-05-02T19:44:41.123Z,99775.75
2023-05-02T19:47:07.785Z,99774.06
2023-05-02T19:49:34.541Z,99781.22
2023-05-02T19:52:01.157Z,99784.81
2023-05-02T19:54:27.749Z,99783.81
2023-05-02T19:56:54.338Z,99779.41
2023-05-02T19:59:20.975Z,99788.13
2023-05-02T20:01:47.677Z,99786.03
2023-05-02T20:04:14.355Z,99785.94
2023-05-02T20:06:41.118Z,99792.47
2023-05-02T20:09:08.172Z,99789.28
2023-05-02T20:11:34.795Z,99800.28
2023-05-02T20:14:01.458Z,99797.53
2023-05-02T20:16:31.056Z,99792.56
2023-05-02T20:18:57.965Z,99797.34
2023-05-02T20:21:24.755Z,99804.38
2023-05-02T20:23:53.957Z,99809.84
2023-05-02T20:26:21.232Z,99802.81
2023-05-02T20:28:47.865Z,99810.91
2023-05-02T20:31:14.601Z,99817.91
2023-05-02T20:33:45.412Z,99820.97
2023-05-02T20:36:13.420Z,99817.75
2023-05-02T20:38:42.210Z,99819.31
2023-05-02T20:41:13.118Z,99828.25
2023-05-02T20:43:41.402Z,99828.25
2023-05-02T20:46:13.785Z,99828.69
2023-05-02T20:48:52.082Z,99827.84
2023-05-02T20:51:18.680Z,99828.84
2023-05-02T20:53:45.338Z,99826.13
2023-05-02T20:56:11.947Z,99833.53
2023-05-02T20:58:38.522Z,99829.53
2023-05-02T21:01:05.804Z,99831.81
2023-05-02T21:03:36.356Z,99830.50
2023-05-02T21:06:08.439Z,99834.84
2023-05-02T21:08:35.106Z,99842.22
2023-05-02T21:11:01.708Z,99838.53
2023-05-02T21:13:28.388Z,99838.53
2023-05-02T21:15:55.168Z,99833.19
2023-05-02T21:18:21.756Z,99831.78
2023-05-02T21:20:48.958Z,99835.25
2023-05-02T21:23:15.594Z,99835.66
2023-05-02T21:25:42.225Z,99844.19
2023-05-02T21:28:08.829Z,99840.59
2023-05-02T21:30:35.516Z,99853.28
2023-05-02T21:33:05.063Z,99844.78
2023-05-02T21:35:33.967Z,99845.63
2023-05-02T21:38:01.468Z,99853.91
2023-05-02T21:40:29.245Z,99845.03
2023-05-02T21:42:55.885Z,99855.19
2023-05-02T21:45:22.505Z,99849.53
2023-05-02T21:47:49.128Z,99843.44
2023-05-02T21:50:16.637Z,99848.44
2023-05-02T21:52:46.625Z,99847.00
2023-05-02T21:55:13.282Z,99851.66
2023-05-02T21:57:40.829Z,99848.41
2023-05-02T22:00:11.437Z,99843.16
2023-05-02T22:02:38.132Z,99843.78
2023-05-02T22:05:05.272Z,99839.38
2023-05-02T22:07:31.921Z,99838.44
2023-05-02T22:09:58.480Z,99836.09
2023-05-02T22:12:26.708Z,99837.78
2023-05-02T22:14:53.304Z,99849.06
2023-05-02T22:17:21.511Z,99852.38
2023-05-02T22:19:50.096Z,99850.59
2023-05-02T22:22:16.788Z,99849.25
2023-05-02T22:24:43.551Z,99847.97
2023-05-02T22:27:10.277Z,99845.69
2023-05-02T22:29:36.845Z,99846.22
2023-05-02T22:32:03.602Z,99843.13
2023-05-02T22:34:30.402Z,99851.72
2023-05-02T22:36:56.995Z,99844.78
2023-05-02T22:39:23.967Z,99844.97
2023-05-02T22:41:50.584Z,99862.59
2023-05-02T22:44:17.264Z,99860.78
2023-05-02T22:46:43.933Z,99863.94
2023-05-02T22:49:11.052Z,99866.94
2023-05-02T22:51:41.666Z,99866.78
2023-05-02T22:54:08.387Z,99872.31
2023-05-02T22:56:35.204Z,99868.25
2023-05-02T22:59:01.919Z,99871.41
2023-05-02T23:01:28.714Z,99870.06
2023-05-02T23:03:55.490Z,99872.16
2023-05-02T23:06:22.234Z,99869.75
2023-05-02T23:08:51.239Z,99881.06
2023-05-02T23:11:17.834Z,99882.69
2023-05-02T23:13:44.472Z,99873.25
2023-05-02T23:16:11.182Z,99873.19
2023-05-02T23:18:37.797Z,99874.84
2023-05-02T23:21:04.780Z,99874.47
2023-05-02T23:23:33.387Z,99868.06
2023-05-02T23:26:00.291Z,99861.81
2023-05-02T23:28:26.938Z,99868.66
2023-05-02T23:30:53.779Z,99864.34
2023-05-02T23:33:20.991Z,99873.34
2023-05-02T23:35:48.239Z,99866.59
2023-05-02T23:38:15.253Z,99870.03
2023-05-02T23:40:41.844Z,99870.53
2023-05-02T23:43:08.886Z,99865.03
2023-05-02T23:45:35.797Z,99871.63
2023-05-02T23:48:02.438Z,99884.50
2023-05-02T23:50:29.084Z,99873.06
2023-05-02T23:52:55.704Z,99863.75
2023-05-02T23:55:22.381Z,99872.44
2023-05-02T23:57:49.009Z,99860.78
